Kinsman, Ohio
Current Conditions -  °F | °C
As of 11:51 AM on Thursday 23 Oct 2014 (Local Time) from KYNG Reporting Station
Broken Clouds Broken Clouds  
Wind Chill: 55°   Ceiling: 1800
Heat Index: 55°   Visibility: 10mi
Dew Point: 45°   Wind: 12mph
Humidity: 69%   Direction: 320°NW
Pressure: 30.15"   Gusts: NA
Location:  41.44°N, 80.59°W
Report Text: KYNG 231551Z 32010KT 10SM BKN018 13/07 A3015 RMK AO2 SLP214 T01280072
Loading
Personal Weather Stations






























Interactive Weather Map
Tropical Storm Tracking
New forecast layout! Learn more

10-Day Weather Forecast

Advertisements
Track Severe Weather on mobile